createdAt,value
2022-10-24T00:01:05.732Z,1.05
2022-10-24T00:03:32.178Z,1.20
2022-10-24T00:05:58.599Z,1.00
2022-10-24T00:08:25.041Z,0.80
2022-10-24T00:10:51.458Z,0.90
2022-10-24T00:13:17.888Z,0.85
2022-10-24T00:15:44.307Z,0.95
2022-10-24T00:18:10.742Z,0.90
2022-10-24T00:20:37.227Z,1.02
2022-10-24T00:23:03.877Z,1.00
2022-10-24T00:25:30.332Z,1.10
2022-10-24T00:27:56.774Z,0.80
2022-10-24T00:30:23.216Z,0.80
2022-10-24T00:32:49.659Z,0.70
2022-10-24T00:35:16.080Z,0.88
2022-10-24T00:37:42.844Z,0.95
2022-10-24T00:40:09.502Z,0.70
2022-10-24T00:42:35.920Z,0.70
2022-10-24T00:45:02.355Z,0.47
2022-10-24T00:47:28.783Z,0.70
2022-10-24T00:49:55.226Z,0.75
2022-10-24T00:52:21.675Z,0.70
2022-10-24T00:54:48.117Z,0.80
2022-10-24T00:57:14.525Z,0.50
2022-10-24T00:59:40.947Z,0.55
2022-10-24T01:02:07.399Z,0.80
2022-10-24T01:04:33.879Z,0.52
2022-10-24T01:07:00.300Z,0.80
2022-10-24T01:09:26.739Z,0.55
2022-10-24T01:11:53.162Z,0.85
2022-10-24T01:14:19.581Z,0.90
2022-10-24T01:16:46.012Z,0.80
2022-10-24T01:19:12.454Z,0.90
2022-10-24T01:21:38.873Z,0.95
2022-10-24T01:24:05.319Z,0.90
2022-10-24T01:26:31.739Z,0.90
2022-10-24T01:28:58.178Z,1.20
2022-10-24T01:31:24.622Z,1.20
2022-10-24T01:33:51.041Z,0.90
2022-10-24T01:36:17.482Z,1.10
2022-10-24T01:38:43.896Z,1.65
2022-10-24T01:41:10.340Z,0.80
2022-10-24T01:43:36.749Z,1.20
2022-10-24T01:46:03.218Z,0.70
2022-10-24T01:48:29.642Z,0.90
2022-10-24T01:50:56.095Z,0.88
2022-10-24T01:53:24.822Z,1.98
2022-10-24T01:55:51.686Z,0.75
2022-10-24T01:58:18.112Z,0.70
2022-10-24T02:00:44.544Z,0.88
2022-10-24T02:03:10.964Z,0.90
2022-10-24T02:05:37.385Z,0.82
2022-10-24T02:08:03.821Z,0.70
2022-10-24T02:10:30.267Z,0.45
2022-10-24T02:12:56.695Z,0.80
2022-10-24T02:15:23.111Z,0.50
2022-10-24T02:17:49.534Z,1.00
2022-10-24T02:20:15.971Z,1.00
2022-10-24T02:22:42.416Z,1.00
2022-10-24T02:25:08.844Z,0.95
2022-10-24T02:27:35.285Z,1.30
2022-10-24T02:30:01.728Z,1.27
2022-10-24T02:32:28.151Z,1.10
2022-10-24T02:34:54.561Z,1.20
2022-10-24T02:37:20.996Z,1.20
2022-10-24T02:39:47.409Z,1.15
2022-10-24T02:42:13.831Z,1.00
2022-10-24T02:44:40.255Z,1.08
2022-10-24T02:47:06.699Z,0.90
2022-10-24T02:49:33.139Z,1.13
2022-10-24T02:51:59.570Z,0.95
2022-10-24T02:54:25.994Z,1.00
2022-10-24T02:56:52.450Z,1.10
2022-10-24T02:59:18.887Z,1.05
2022-10-24T03:01:45.401Z,1.13
2022-10-24T03:04:11.867Z,0.85
2022-10-24T03:06:38.292Z,0.70
2022-10-24T03:09:04.733Z,0.70
2022-10-24T03:11:31.161Z,1.08
2022-10-24T03:13:57.605Z,1.00
2022-10-24T03:16:24.028Z,2.03
2022-10-24T03:18:50.503Z,1.05
2022-10-24T03:21:16.920Z,0.70
2022-10-24T03:23:43.354Z,1.02
2022-10-24T03:26:09.778Z,0.98
2022-10-24T03:28:36.203Z,1.10
2022-10-24T03:31:02.642Z,0.90
2022-10-24T03:33:29.102Z,1.00
2022-10-24T03:35:55.527Z,0.95
2022-10-24T03:38:21.965Z,0.80
2022-10-24T03:40:48.398Z,0.77
2022-10-24T03:43:14.830Z,1.10
2022-10-24T03:45:41.262Z,0.70
2022-10-24T03:48:07.713Z,0.93
2022-10-24T03:50:34.144Z,0.88
2022-10-24T03:53:00.588Z,0.68
2022-10-24T03:55:27.034Z,0.70
2022-10-24T03:57:53.471Z,0.70
2022-10-24T04:00:19.898Z,0.80
2022-10-24T04:02:46.343Z,0.82
2022-10-24T04:05:12.781Z,0.60
2022-10-24T04:07:39.212Z,0.93
2022-10-24T04:10:05.641Z,0.75
2022-10-24T04:12:32.083Z,0.85
2022-10-24T04:15:02.438Z,0.95
2022-10-24T04:17:31.279Z,0.73
2022-10-24T04:19:57.702Z,0.90
2022-10-24T04:22:24.165Z,1.15
2022-10-24T04:24:50.604Z,1.20
2022-10-24T04:27:17.033Z,0.68
2022-10-24T04:29:43.486Z,1.33
2022-10-24T04:32:09.902Z,0.77
2022-10-24T04:34:36.338Z,0.70
2022-10-24T04:37:02.798Z,0.80
2022-10-24T04:39:29.225Z,0.43
2022-10-24T04:41:55.649Z,0.52
2022-10-24T04:44:22.098Z,0.50
2022-10-24T04:46:50.717Z,0.60
2022-10-24T04:49:17.811Z,0.60
2022-10-24T04:51:44.237Z,0.45
2022-10-24T04:54:10.677Z,0.70
2022-10-24T04:56:37.199Z,0.52
2022-10-24T04:59:03.652Z,0.50
2022-10-24T05:01:30.160Z,0.47
2022-10-24T05:03:56.674Z,0.35
2022-10-24T05:06:23.164Z,0.52
2022-10-24T05:08:49.585Z,0.60
2022-10-24T05:11:16.003Z,0.60
2022-10-24T05:13:42.432Z,0.50
2022-10-24T05:16:08.867Z,0.60
2022-10-24T05:18:35.310Z,0.60
2022-10-24T05:21:01.751Z,0.32
2022-10-24T05:23:28.184Z,0.73
2022-10-24T05:25:54.605Z,0.50
2022-10-24T05:28:21.037Z,0.70
2022-10-24T05:30:47.462Z,0.70
2022-10-24T05:33:13.916Z,0.55
2022-10-24T05:35:40.341Z,0.73
2022-10-24T05:38:06.776Z,0.52
2022-10-24T05:40:33.196Z,0.45
2022-10-24T05:42:59.630Z,0.40
2022-10-24T05:45:26.065Z,0.50
2022-10-24T05:47:52.499Z,0.60
2022-10-24T05:50:18.928Z,0.60
2022-10-24T05:52:47.192Z,0.50
2022-10-24T05:55:16.975Z,0.63
2022-10-24T05:57:44.634Z,0.90
2022-10-24T06:00:11.292Z,0.50
2022-10-24T06:02:37.791Z,0.70
2022-10-24T06:05:04.253Z,0.75
2022-10-24T06:07:30.683Z,0.93
2022-10-24T06:09:57.143Z,0.60
2022-10-24T06:12:23.574Z,0.70
2022-10-24T06:14:50.005Z,0.70
2022-10-24T06:17:16.442Z,0.80
2022-10-24T06:19:42.922Z,0.68
2022-10-24T06:22:09.362Z,0.47
2022-10-24T06:24:35.797Z,0.80
2022-10-24T06:27:02.212Z,0.50
2022-10-24T06:29:28.639Z,0.50
2022-10-24T06:31:55.073Z,0.50
2022-10-24T06:36:52.873Z,0.65
2022-10-24T06:39:19.329Z,0.65
2022-10-24T06:41:45.760Z,0.60
2022-10-24T06:44:12.210Z,0.90
2022-10-24T06:46:38.663Z,0.80
2022-10-24T06:49:05.107Z,0.80
2022-10-24T06:51:31.745Z,1.10
2022-10-24T06:53:58.189Z,0.70
2022-10-24T06:56:24.615Z,0.50
2022-10-24T06:58:51.045Z,0.85
2022-10-24T07:01:17.630Z,0.55
2022-10-24T07:03:44.196Z,0.70
2022-10-24T07:06:10.672Z,0.85
2022-10-24T07:08:37.146Z,0.77
2022-10-24T07:11:03.561Z,1.00
2022-10-24T07:13:29.987Z,1.00
2022-10-24T07:15:56.432Z,0.60
2022-10-24T07:18:22.869Z,0.80
2022-10-24T07:20:49.321Z,0.70
2022-10-24T07:23:15.749Z,0.60
2022-10-24T07:25:42.194Z,0.90
2022-10-24T07:28:08.632Z,0.88
2022-10-24T07:30:35.055Z,0.80
2022-10-24T07:33:01.491Z,0.88
2022-10-24T07:35:27.925Z,0.60
2022-10-24T07:37:54.356Z,0.68
2022-10-24T07:40:20.793Z,0.90
2022-10-24T07:42:47.221Z,0.82
2022-10-24T07:58:43.576Z,0.68
2022-10-24T08:01:10.099Z,0.90
2022-10-24T08:03:36.547Z,0.68
2022-10-24T08:06:02.998Z,0.73
2022-10-24T08:08:36.302Z,0.80
2022-10-24T08:11:03.742Z,0.90
2022-10-24T08:13:30.152Z,0.70
2022-10-24T08:15:56.606Z,0.95
2022-10-24T08:18:23.038Z,1.02
2022-10-24T08:20:49.499Z,0.82
2022-10-24T08:23:15.913Z,1.20
2022-10-24T08:25:42.343Z,0.63
2022-10-24T08:28:09.252Z,0.93
2022-10-24T08:30:35.871Z,1.30
2022-10-24T08:33:02.328Z,0.80
2022-10-24T08:35:28.780Z,0.90
2022-10-24T08:37:55.220Z,0.45
2022-10-24T08:40:21.752Z,1.38
2022-10-24T08:42:48.571Z,0.85
2022-10-24T08:45:15.241Z,1.02
2022-10-24T08:47:41.690Z,0.60
2022-10-24T08:50:08.110Z,0.77
2022-10-24T08:52:34.564Z,0.80
2022-10-24T08:55:04.779Z,0.60
2022-10-24T09:00:00.147Z,1.02
2022-10-24T09:02:26.700Z,1.05
2022-10-24T09:04:53.224Z,1.10
2022-10-24T09:07:19.710Z,0.90
2022-10-24T09:09:46.191Z,0.70
2022-10-24T09:12:12.638Z,0.65
2022-10-24T09:14:39.092Z,1.00
2022-10-24T09:17:05.525Z,0.80
2022-10-24T09:19:31.968Z,1.27
2022-10-24T09:21:58.400Z,1.25
2022-10-24T09:24:24.821Z,1.30
2022-10-24T09:26:51.258Z,1.10
2022-10-24T09:29:17.701Z,0.90
2022-10-24T09:31:44.148Z,1.20
2022-10-24T09:34:10.808Z,0.90
2022-10-24T09:36:37.297Z,0.95
2022-10-24T09:39:03.738Z,1.00
2022-10-24T09:41:31.411Z,0.93
2022-10-24T09:43:57.874Z,1.08
2022-10-24T09:46:24.300Z,0.70
2022-10-24T09:48:50.747Z,0.90
2022-10-24T09:51:17.243Z,0.82
2022-10-24T09:53:43.683Z,1.02
2022-10-24T09:56:10.148Z,0.80
2022-10-24T09:58:36.570Z,0.57
2022-10-24T10:01:03.108Z,0.82
2022-10-24T10:03:29.606Z,0.80
2022-10-24T11:07:40.061Z,0.85
2022-10-24T11:10:06.513Z,0.70
2022-10-24T11:12:32.942Z,0.68
2022-10-24T11:14:59.403Z,1.35
2022-10-24T11:17:25.824Z,1.13
2022-10-24T11:19:52.251Z,1.25
2022-10-24T11:22:18.693Z,1.10
2022-10-24T11:24:45.114Z,1.23
2022-10-24T11:27:11.532Z,1.35
2022-10-24T11:29:37.953Z,1.15
2022-10-24T11:34:35.720Z,0.90
2022-10-24T11:37:02.162Z,0.95
2022-10-24T11:39:28.600Z,1.88
2022-10-24T11:41:55.025Z,1.52
2022-10-24T11:44:21.627Z,2.05
2022-10-24T11:46:48.083Z,2.08
2022-10-24T11:49:14.540Z,1.70
2022-10-24T11:51:40.978Z,1.55
2022-10-24T11:54:07.433Z,1.73
2022-10-24T11:56:33.848Z,1.20
2022-10-24T11:59:00.295Z,1.00
2022-10-24T12:01:26.777Z,1.13
2022-10-24T12:03:53.263Z,0.88
2022-10-24T12:06:19.688Z,1.15
2022-10-24T12:08:46.117Z,1.60
2022-10-24T12:11:12.551Z,0.95
2022-10-24T12:13:38.984Z,1.75
2022-10-24T12:16:05.447Z,1.15
2022-10-24T12:18:32.011Z,1.05
2022-10-24T12:20:58.490Z,1.10
2022-10-24T12:23:24.918Z,1.52
2022-10-24T12:25:51.359Z,1.20
2022-10-24T12:28:17.810Z,1.90
2022-10-24T12:30:44.285Z,1.40
2022-10-24T12:33:10.741Z,2.03
2022-10-24T12:35:37.169Z,2.65
2022-10-24T12:38:03.621Z,2.22
2022-10-24T12:40:30.058Z,1.83
2022-10-24T12:42:56.510Z,2.30
2022-10-24T12:45:22.942Z,2.90
2022-10-24T12:47:49.415Z,2.20
2022-10-24T12:50:15.873Z,1.70
2022-10-24T12:52:42.407Z,1.30
2022-10-24T12:55:09.002Z,0.82
2022-10-24T12:57:35.420Z,0.88
2022-10-24T13:00:01.860Z,1.10
2022-10-24T13:02:28.464Z,1.27
2022-10-24T13:04:54.974Z,0.90
2022-10-24T13:07:21.396Z,0.47
2022-10-24T13:09:47.829Z,1.30
2022-10-24T13:12:14.271Z,1.83
2022-10-24T13:14:40.723Z,2.40
2022-10-24T13:17:07.175Z,2.08
2022-10-24T13:19:33.609Z,1.90
2022-10-24T13:22:00.042Z,1.90
2022-10-24T13:24:26.470Z,0.95
2022-10-24T13:26:52.896Z,1.98
2022-10-24T13:29:19.328Z,1.42
2022-10-24T13:31:45.773Z,0.90
2022-10-24T13:34:12.194Z,0.98
2022-10-24T13:36:38.621Z,0.75
2022-10-24T13:39:05.064Z,0.65
2022-10-24T13:41:31.500Z,0.60
2022-10-24T13:43:57.920Z,0.88
2022-10-24T13:46:24.364Z,0.50
2022-10-24T13:48:50.801Z,0.60
2022-10-24T13:51:17.251Z,2.00
2022-10-24T13:53:43.665Z,0.45
2022-10-24T13:56:10.110Z,0.75
2022-10-24T13:58:38.100Z,2.10
2022-10-24T14:01:07.384Z,2.00
2022-10-24T14:03:33.887Z,1.42
2022-10-24T14:06:00.318Z,1.20
2022-10-24T14:08:26.752Z,1.25
2022-10-24T14:10:53.178Z,0.60
2022-10-24T14:13:19.634Z,0.60
2022-10-24T14:15:46.078Z,0.68
2022-10-24T14:18:12.589Z,1.02
2022-10-24T14:20:39.101Z,1.05
2022-10-24T14:23:05.578Z,1.50
2022-10-24T14:25:32.004Z,0.90
2022-10-24T14:27:58.437Z,1.20
2022-10-24T14:30:24.874Z,1.10
2022-10-24T14:32:51.367Z,0.88
2022-10-24T14:35:17.793Z,1.60
2022-10-24T14:37:44.507Z,1.55
2022-10-24T14:40:11.110Z,1.40
2022-10-24T14:42:37.542Z,1.13
2022-10-24T14:45:03.976Z,0.80
2022-10-24T14:47:30.442Z,0.65
2022-10-24T14:49:56.891Z,0.65
2022-10-24T14:52:23.332Z,1.00
2022-10-24T14:54:49.745Z,0.50
2022-10-24T14:57:16.179Z,0.60
2022-10-24T14:59:42.600Z,0.60
2022-10-24T15:02:09.034Z,0.77
2022-10-24T15:04:35.477Z,0.63
2022-10-24T15:07:01.919Z,0.57
2022-10-24T15:09:28.358Z,0.30
2022-10-24T15:11:54.776Z,0.40
2022-10-24T15:14:21.208Z,0.30
2022-10-24T15:16:47.870Z,0.22
2022-10-24T15:19:14.373Z,0.20
2022-10-24T15:21:40.796Z,0.30
2022-10-24T15:24:07.244Z,0.28
2022-10-24T15:29:08.982Z,0.35
2022-10-24T15:31:35.414Z,0.40
2022-10-24T15:34:01.852Z,0.43
2022-10-24T15:36:30.742Z,0.20
2022-10-24T15:38:58.222Z,0.32
2022-10-24T15:41:24.663Z,0.20
2022-10-24T15:43:51.100Z,0.30
2022-10-24T15:46:17.523Z,0.30
2022-10-24T15:48:43.968Z,0.35
2022-10-24T15:51:10.399Z,0.30
2022-10-24T15:53:36.839Z,0.22
2022-10-24T15:56:03.255Z,0.17
2022-10-24T15:58:29.691Z,0.20
2022-10-24T16:00:56.183Z,0.20
2022-10-24T16:03:22.613Z,0.38
2022-10-24T16:05:49.052Z,0.30
2022-10-24T16:08:15.473Z,0.43
2022-10-24T16:10:41.896Z,0.20
2022-10-24T16:13:08.326Z,0.30
2022-10-24T16:15:34.770Z,0.30
2022-10-24T16:18:01.201Z,1.48
2022-10-24T16:20:27.648Z,0.75
2022-10-24T16:22:54.094Z,1.35
2022-10-24T16:25:20.510Z,1.20
2022-10-24T16:27:47.312Z,0.98
2022-10-24T16:30:13.945Z,1.38
2022-10-24T16:32:40.399Z,0.90
2022-10-24T16:35:06.818Z,0.98
2022-10-24T16:37:33.275Z,0.93
2022-10-24T16:39:59.709Z,0.70
2022-10-24T16:42:26.135Z,0.60
2022-10-24T16:44:52.566Z,0.60
2022-10-24T16:47:19.014Z,0.50
2022-10-24T16:49:45.439Z,0.50
2022-10-24T16:52:11.894Z,0.57
2022-10-24T16:54:38.308Z,0.85
2022-10-24T16:57:04.733Z,0.52
2022-10-24T16:59:31.368Z,0.60
2022-10-24T17:01:57.886Z,0.70
2022-10-24T17:04:24.358Z,0.80
2022-10-24T17:06:50.792Z,0.40
2022-10-24T17:09:17.210Z,0.50
2022-10-24T17:11:45.983Z,0.50
2022-10-24T17:14:12.772Z,0.60
2022-10-24T17:16:39.214Z,0.50
2022-10-24T17:19:15.734Z,0.40
2022-10-24T17:21:43.288Z,1.05
2022-10-24T17:24:09.727Z,0.63
2022-10-24T17:26:36.150Z,0.40
2022-10-24T17:29:02.587Z,0.30
2022-10-24T17:31:29.018Z,0.25
2022-10-24T17:33:55.467Z,0.40
2022-10-24T17:36:21.911Z,0.40
2022-10-24T17:38:48.383Z,0.28
2022-10-24T17:41:14.822Z,0.30
2022-10-24T17:43:41.253Z,0.20
2022-10-24T17:46:07.769Z,0.20
2022-10-24T17:48:34.244Z,0.20
2022-10-24T17:51:00.665Z,0.32
2022-10-24T17:53:27.107Z,0.20
2022-10-24T17:55:53.528Z,0.20
2022-10-24T17:58:19.983Z,0.40
2022-10-24T18:00:46.532Z,0.40
2022-10-24T18:03:13.162Z,0.40
2022-10-24T18:05:39.584Z,0.43
2022-10-24T18:08:06.024Z,0.50
2022-10-24T18:10:32.448Z,0.22
2022-10-24T18:15:30.217Z,0.40
2022-10-24T18:17:56.654Z,0.40
2022-10-24T18:20:23.095Z,0.40
2022-10-24T18:22:49.803Z,0.20
2022-10-24T18:25:20.256Z,0.28
2022-10-24T18:27:49.308Z,0.30
2022-10-24T18:30:15.749Z,0.20
2022-10-24T18:32:42.192Z,0.38
2022-10-24T18:35:08.629Z,0.40
2022-10-24T18:37:35.081Z,0.40
2022-10-24T18:40:01.505Z,0.52
2022-10-24T18:42:27.929Z,0.30
2022-10-24T18:44:54.374Z,1.20
2022-10-24T18:47:23.326Z,1.90
2022-10-24T18:49:52.105Z,1.80
2022-10-24T18:52:18.517Z,1.80
2022-10-24T18:54:44.949Z,2.30
2022-10-24T18:57:11.370Z,1.48
2022-10-24T18:59:37.797Z,1.50
2022-10-24T19:02:04.384Z,1.30
2022-10-24T19:04:30.933Z,1.20
2022-10-24T19:06:57.373Z,0.80
2022-10-24T19:09:23.821Z,1.00
2022-10-24T19:11:50.251Z,1.00
2022-10-24T19:14:16.687Z,0.88
2022-10-24T19:16:43.139Z,0.65
2022-10-24T19:19:09.562Z,0.80
2022-10-24T19:21:35.996Z,0.70
2022-10-24T19:24:02.412Z,0.60
2022-10-24T19:26:28.845Z,0.60
2022-10-24T19:28:55.290Z,0.70
2022-10-24T19:31:21.730Z,0.70
2022-10-24T19:33:48.173Z,0.68
2022-10-24T19:36:18.997Z,0.50
2022-10-24T19:38:45.837Z,0.70
2022-10-24T19:41:12.308Z,0.95
2022-10-24T19:43:38.734Z,1.00
2022-10-24T19:46:19.493Z,1.55
2022-10-24T19:48:46.418Z,1.33
2022-10-24T19:51:12.842Z,1.20
2022-10-24T19:53:39.259Z,0.90
2022-10-24T19:56:05.701Z,1.70
2022-10-24T19:58:32.119Z,1.20
2022-10-24T20:00:58.583Z,0.70
2022-10-24T20:03:25.054Z,0.73
2022-10-24T20:05:51.517Z,0.60
2022-10-24T20:08:17.973Z,0.70
2022-10-24T20:10:44.409Z,0.40
2022-10-24T20:13:10.829Z,0.40
2022-10-24T20:15:37.265Z,0.40
2022-10-24T20:18:03.703Z,0.32
2022-10-24T20:20:30.131Z,0.30
2022-10-24T20:22:56.560Z,0.40
2022-10-24T20:25:22.993Z,0.40
2022-10-24T20:27:49.416Z,0.15
2022-10-24T20:30:15.856Z,0.30
2022-10-24T20:32:42.300Z,0.13
2022-10-24T20:35:08.720Z,0.22
2022-10-24T20:37:35.160Z,0.20
2022-10-24T20:40:01.592Z,0.28
2022-10-24T20:42:28.029Z,0.20
2022-10-24T20:44:54.471Z,0.30
2022-10-24T20:47:20.901Z,0.50
2022-10-24T20:49:47.337Z,0.40
2022-10-24T20:52:13.806Z,0.40
2022-10-24T20:54:40.235Z,0.40
2022-10-24T20:57:06.688Z,0.40
2022-10-24T20:59:33.120Z,0.40
2022-10-24T21:01:59.671Z,0.30
2022-10-24T21:04:26.157Z,0.43
2022-10-24T21:06:52.605Z,0.25
2022-10-24T21:09:19.024Z,0.50
2022-10-24T21:11:45.456Z,0.60
2022-10-24T21:14:11.893Z,0.50
2022-10-24T21:16:38.352Z,0.80
2022-10-24T21:19:04.779Z,0.63
2022-10-24T21:21:31.226Z,1.13
2022-10-24T21:24:02.234Z,0.80
2022-10-24T21:26:32.127Z,0.60
2022-10-24T21:29:08.504Z,0.60
2022-10-24T21:31:44.949Z,1.27
2022-10-24T21:34:11.396Z,0.80
2022-10-24T21:36:37.817Z,0.60
2022-10-24T21:39:04.244Z,0.40
2022-10-24T21:41:30.678Z,0.50
2022-10-24T21:43:57.097Z,0.70
2022-10-24T21:46:23.528Z,0.63
2022-10-24T21:48:49.946Z,0.50
2022-10-24T21:51:16.386Z,0.50
2022-10-24T21:53:42.821Z,0.70
2022-10-24T21:56:09.263Z,0.70
2022-10-24T21:58:35.712Z,0.60
2022-10-24T22:01:02.237Z,0.65
2022-10-24T22:03:28.777Z,1.00
2022-10-24T22:05:55.215Z,1.50
2022-10-24T22:08:21.653Z,1.10
2022-10-24T22:10:48.081Z,0.93
2022-10-24T22:13:14.516Z,0.93
2022-10-24T22:15:40.987Z,0.80
2022-10-24T22:18:07.469Z,1.00
2022-10-24T22:20:33.892Z,0.73
2022-10-24T22:23:00.335Z,0.80
2022-10-24T22:25:26.765Z,0.70
2022-10-24T22:27:53.199Z,1.00
2022-10-24T22:30:19.638Z,1.48
2022-10-24T22:32:46.290Z,1.55
2022-10-24T22:35:12.910Z,1.40
2022-10-24T22:37:39.356Z,1.23
2022-10-24T22:40:05.787Z,1.33
2022-10-24T22:42:32.222Z,1.20
2022-10-24T22:44:58.650Z,1.38
2022-10-24T22:47:25.080Z,1.10
2022-10-24T22:49:51.524Z,0.80
2022-10-24T22:52:17.955Z,0.60
2022-10-24T22:54:44.394Z,0.70
2022-10-24T22:57:10.811Z,0.60
2022-10-24T22:59:37.239Z,0.85
2022-10-24T23:02:03.783Z,0.68
2022-10-24T23:04:30.328Z,0.60
2022-10-24T23:06:56.744Z,0.68
2022-10-24T23:09:23.176Z,0.77
2022-10-24T23:11:49.606Z,0.73
2022-10-24T23:16:47.372Z,0.90
2022-10-24T23:19:13.823Z,0.60
2022-10-24T23:21:40.248Z,0.73
2022-10-24T23:24:06.701Z,0.73
2022-10-24T23:26:33.135Z,0.40
2022-10-24T23:28:59.580Z,0.35
2022-10-24T23:31:25.991Z,0.40
2022-10-24T23:33:52.441Z,0.75
2022-10-24T23:36:18.867Z,0.77
2022-10-24T23:38:45.310Z,0.70
2022-10-24T23:41:11.729Z,0.50
2022-10-24T23:43:38.152Z,1.08
2022-10-24T23:46:04.607Z,0.55
2022-10-24T23:48:31.016Z,0.60
2022-10-24T23:50:57.463Z,0.55
2022-10-24T23:53:23.892Z,0.40
2022-10-24T23:55:50.359Z,0.35
2022-10-24T23:58:16.814Z,0.32
